createdAt,value
2023-11-09T00:02:14.006Z,1.95
2023-11-09T00:04:44.522Z,2.25
2023-11-09T00:07:14.887Z,1.65
2023-11-09T00:09:45.162Z,2.03
2023-11-09T00:12:18.035Z,2.50
2023-11-09T00:14:48.813Z,2.45
2023-11-09T00:17:21.388Z,1.25
2023-11-09T00:19:51.680Z,2.50
2023-11-09T00:22:25.119Z,1.70
2023-11-09T00:24:55.409Z,1.92
2023-11-09T00:27:28.279Z,2.40
2023-11-09T00:30:01.666Z,1.48
2023-11-09T00:32:32.187Z,3.42
2023-11-09T00:35:02.748Z,2.05
2023-11-09T00:37:33.209Z,2.58
2023-11-09T00:40:05.618Z,4.15
2023-11-09T00:42:38.552Z,2.90
2023-11-09T00:45:10.618Z,3.17
2023-11-09T00:47:40.882Z,3.13
2023-11-09T00:50:12.219Z,1.75
2023-11-09T00:52:45.125Z,2.65
2023-11-09T00:55:18.413Z,2.08
2023-11-09T00:57:57.291Z,2.72
2023-11-09T01:00:28.773Z,2.17
2023-11-09T01:02:59.056Z,1.95
2023-11-09T01:05:29.353Z,3.58
2023-11-09T01:07:59.644Z,3.22
2023-11-09T01:10:32.940Z,3.38
2023-11-09T01:13:06.063Z,1.67
2023-11-09T01:15:38.254Z,2.35
2023-11-09T01:18:13.169Z,3.20
2023-11-09T01:20:43.668Z,2.67
2023-11-09T01:23:13.929Z,1.83
2023-11-09T01:25:44.889Z,1.88
2023-11-09T01:28:17.923Z,1.75
2023-11-09T01:30:48.611Z,1.30
2023-11-09T01:33:18.975Z,1.52
2023-11-09T01:35:52.048Z,2.63
2023-11-09T01:38:22.331Z,2.45
2023-11-09T01:40:56.464Z,2.20
2023-11-09T01:43:29.331Z,1.98
2023-11-09T01:45:59.713Z,1.70
2023-11-09T01:48:31.144Z,2.35
2023-11-09T01:51:02.866Z,1.67
2023-11-09T01:53:34.267Z,1.83
2023-11-09T01:56:07.467Z,1.92
2023-11-09T01:58:41.305Z,1.25
2023-11-09T02:01:17.269Z,1.73
2023-11-09T02:03:47.865Z,1.73
2023-11-09T02:06:20.451Z,1.52
2023-11-09T02:08:53.949Z,2.25
2023-11-09T02:11:25.707Z,2.03
2023-11-09T02:13:58.590Z,1.08
2023-11-09T02:16:29.010Z,1.20
2023-11-09T02:19:00.062Z,1.20
2023-11-09T02:21:34.607Z,1.30
2023-11-09T02:24:09.392Z,1.92
2023-11-09T02:26:43.538Z,2.28
2023-11-09T02:29:14.671Z,2.75
2023-11-09T02:31:47.751Z,1.40
2023-11-09T02:34:25.419Z,1.10
2023-11-09T02:36:56.971Z,1.23
2023-11-09T02:39:27.833Z,1.23
2023-11-09T02:42:00.710Z,2.08
2023-11-09T02:44:30.970Z,1.75
2023-11-09T02:47:01.727Z,1.13
2023-11-09T02:49:34.473Z,0.90
2023-11-09T02:52:07.080Z,1.85
2023-11-09T02:54:38.702Z,1.58
2023-11-09T02:57:12.953Z,1.40
2023-11-09T02:59:44.927Z,1.55
2023-11-09T03:02:15.241Z,1.10
2023-11-09T03:04:45.944Z,1.20
2023-11-09T03:07:16.634Z,0.85
2023-11-09T03:09:47.208Z,1.60
2023-11-09T03:12:20.107Z,1.50
2023-11-09T03:14:51.892Z,1.80
2023-11-09T03:17:23.511Z,1.52
2023-11-09T03:19:54.341Z,1.05
2023-11-09T03:22:24.640Z,1.58
2023-11-09T03:24:54.967Z,1.67
2023-11-09T03:27:27.899Z,0.70
2023-11-09T03:29:58.175Z,1.02
2023-11-09T03:32:28.489Z,1.00
2023-11-09T03:34:59.972Z,1.00
2023-11-09T03:37:31.480Z,0.90
2023-11-09T03:40:04.983Z,0.90
2023-11-09T03:42:37.882Z,1.50
2023-11-09T03:45:10.433Z,1.50
2023-11-09T03:47:43.241Z,1.80
2023-11-09T03:50:15.920Z,0.98
2023-11-09T03:52:49.415Z,0.80
2023-11-09T03:55:20.044Z,1.55
2023-11-09T03:57:53.128Z,1.00
2023-11-09T04:00:23.638Z,1.02
2023-11-09T04:02:54.255Z,0.82
2023-11-09T04:05:24.789Z,1.45
2023-11-09T04:07:55.038Z,1.38
2023-11-09T04:10:26.044Z,1.70
2023-11-09T04:12:58.935Z,4.25
2023-11-09T04:15:29.311Z,1.25
2023-11-09T04:17:59.683Z,1.20
2023-11-09T04:20:29.988Z,1.17
2023-11-09T04:23:00.237Z,1.08
2023-11-09T04:25:31.809Z,1.98
2023-11-09T04:28:07.449Z,1.23
2023-11-09T04:30:37.951Z,1.30
2023-11-09T04:33:13.331Z,1.48
2023-11-09T04:35:48.009Z,2.42
2023-11-09T04:38:18.936Z,2.17
2023-11-09T04:40:52.233Z,1.90
2023-11-09T04:43:25.367Z,1.33
2023-11-09T04:46:02.804Z,1.10
2023-11-09T04:48:33.159Z,1.65
2023-11-09T04:51:05.887Z,1.10
2023-11-09T04:53:43.169Z,0.95
2023-11-09T04:56:21.362Z,2.20
2023-11-09T04:59:03.051Z,0.80
2023-11-09T05:01:47.599Z,0.85
2023-11-09T05:04:30.342Z,1.30
2023-11-09T05:07:00.630Z,1.10
2023-11-09T05:09:31.004Z,1.13
2023-11-09T05:12:01.249Z,1.65
2023-11-09T05:14:34.119Z,2.58
2023-11-09T05:17:04.379Z,1.00
2023-11-09T05:19:34.675Z,1.27
2023-11-09T05:22:05.088Z,2.70
2023-11-09T05:24:35.367Z,2.08
2023-11-09T05:27:05.747Z,1.08
2023-11-09T05:29:42.354Z,0.70
2023-11-09T05:32:15.465Z,0.90
2023-11-09T05:34:48.494Z,0.73
2023-11-09T05:37:21.601Z,1.00
2023-11-09T05:39:51.903Z,1.02
2023-11-09T05:42:25.288Z,1.98
2023-11-09T05:44:59.134Z,0.80
2023-11-09T05:47:29.371Z,0.68
2023-11-09T05:50:01.086Z,0.88
2023-11-09T05:52:31.413Z,0.73
2023-11-09T05:55:01.667Z,0.65
2023-11-09T05:57:31.975Z,0.90
2023-11-09T06:00:07.479Z,0.93
2023-11-09T06:02:39.289Z,1.15
2023-11-09T06:05:10.260Z,0.85
2023-11-09T06:07:41.742Z,0.70
2023-11-09T06:10:14.554Z,0.70
2023-11-09T06:12:44.845Z,0.90
2023-11-09T06:15:17.725Z,0.82
2023-11-09T06:17:48.520Z,1.40
2023-11-09T06:20:21.686Z,0.55
2023-11-09T06:22:54.472Z,0.50
2023-11-09T06:25:25.293Z,1.02
2023-11-09T06:27:58.668Z,0.90
2023-11-09T06:30:31.684Z,0.82
2023-11-09T06:33:03.443Z,1.77
2023-11-09T06:35:40.337Z,0.50
2023-11-09T06:38:10.618Z,0.80
2023-11-09T06:40:41.069Z,0.88
2023-11-09T06:43:11.378Z,1.02
2023-11-09T06:45:44.376Z,0.50
2023-11-09T06:48:14.705Z,0.50
2023-11-09T06:50:44.990Z,0.57
2023-11-09T06:53:19.660Z,0.60
2023-11-09T06:55:50.136Z,1.33
2023-11-09T06:58:20.428Z,0.47
2023-11-09T07:00:53.374Z,0.50
2023-11-09T07:03:24.013Z,0.80
2023-11-09T07:05:55.376Z,0.50
2023-11-09T07:08:29.949Z,0.38
2023-11-09T07:11:00.815Z,0.50
2023-11-09T07:13:31.621Z,0.85
2023-11-09T07:16:04.586Z,1.35
2023-11-09T07:18:34.869Z,0.45
2023-11-09T07:21:10.631Z,0.60
2023-11-09T07:23:45.437Z,5.45
2023-11-09T07:26:15.745Z,0.80
2023-11-09T07:28:46.120Z,4.88
2023-11-09T07:31:19.071Z,5.00
2023-11-09T07:33:51.278Z,3.22
2023-11-09T07:36:22.771Z,1.55
2023-11-09T07:38:55.374Z,1.10
2023-11-09T07:41:29.711Z,1.15
2023-11-09T07:43:59.960Z,0.98
2023-11-09T07:46:35.387Z,1.45
2023-11-09T07:49:06.949Z,0.50
2023-11-09T07:51:39.151Z,0.63
2023-11-09T07:54:09.923Z,0.65
2023-11-09T07:56:40.452Z,0.55
2023-11-09T07:59:10.779Z,0.68
2023-11-09T08:01:43.721Z,0.70
2023-11-09T08:04:17.288Z,0.60
2023-11-09T08:06:49.145Z,0.70
2023-11-09T08:09:20.421Z,0.40
2023-11-09T08:11:53.185Z,1.00
2023-11-09T08:14:23.453Z,0.70
2023-11-09T08:16:58.723Z,0.50
2023-11-09T08:19:29.065Z,0.60
2023-11-09T08:21:59.350Z,0.60
2023-11-09T08:24:29.624Z,0.65
2023-11-09T08:26:59.911Z,0.75
2023-11-09T08:29:31.125Z,0.43
2023-11-09T08:32:08.046Z,0.50
2023-11-09T08:34:38.383Z,0.70
2023-11-09T08:37:11.809Z,1.50
2023-11-09T08:39:43.148Z,0.70
2023-11-09T08:42:14.738Z,0.80
2023-11-09T08:45:07.420Z,0.50
2023-11-09T08:47:40.748Z,1.13
2023-11-09T08:50:14.499Z,0.70
2023-11-09T08:52:45.242Z,0.88
2023-11-09T08:55:16.078Z,0.57
2023-11-09T08:57:46.687Z,0.63
2023-11-09T09:00:18.080Z,0.90
2023-11-09T09:02:53.719Z,0.60
2023-11-09T09:05:28.229Z,0.60
2023-11-09T09:08:02.439Z,0.57
2023-11-09T09:10:34.835Z,0.82
2023-11-09T09:13:05.586Z,0.50
2023-11-09T09:15:36.548Z,0.50
2023-11-09T09:18:11.518Z,0.40
2023-11-09T09:20:42.357Z,1.08
2023-11-09T09:23:12.713Z,0.70
2023-11-09T09:25:43.077Z,0.55
2023-11-09T09:28:15.208Z,2.08
2023-11-09T09:30:46.722Z,0.50
2023-11-09T09:33:20.815Z,0.40
2023-11-09T09:35:51.510Z,0.32
2023-11-09T09:38:22.360Z,0.60
2023-11-09T09:40:54.790Z,0.68
2023-11-09T09:43:26.152Z,1.30
2023-11-09T09:46:01.046Z,2.08
2023-11-09T09:48:35.115Z,1.83
2023-11-09T09:51:16.731Z,2.42
2023-11-09T09:53:49.161Z,3.00
2023-11-09T09:56:23.115Z,4.22
2023-11-09T09:58:54.773Z,3.58
2023-11-09T10:01:26.700Z,5.15
2023-11-09T10:04:02.880Z,4.20
2023-11-09T10:06:33.217Z,3.45
2023-11-09T10:09:06.752Z,3.47
2023-11-09T10:11:39.174Z,2.80
2023-11-09T10:14:09.453Z,3.33
2023-11-09T10:16:40.302Z,4.30
2023-11-09T10:19:17.515Z,4.13
2023-11-09T10:21:49.944Z,3.90
2023-11-09T10:24:24.523Z,4.80
2023-11-09T10:26:55.798Z,3.80
2023-11-09T10:29:27.324Z,4.97
2023-11-09T10:32:02.218Z,5.13
2023-11-09T10:34:36.325Z,3.92
2023-11-09T10:37:06.757Z,9.75
2023-11-09T10:39:41.727Z,5.32
2023-11-09T10:42:17.880Z,6.13
2023-11-09T10:44:48.867Z,4.20
2023-11-09T10:47:19.412Z,4.35
2023-11-09T10:49:57.579Z,5.15
2023-11-09T10:52:29.516Z,5.32
2023-11-09T10:55:03.380Z,5.90
2023-11-09T10:57:34.343Z,5.90
2023-11-09T11:00:05.106Z,6.13
2023-11-09T11:02:46.944Z,17.02
2023-11-09T11:05:26.485Z,17.20
2023-11-09T11:08:03.724Z,6.97
2023-11-09T11:10:34.869Z,19.23
2023-11-09T11:13:12.683Z,36.55
2023-11-09T11:16:22.441Z,35.60
2023-11-09T11:19:31.102Z,15.73
2023-11-09T11:22:42.785Z,15.38
2023-11-09T11:25:41.134Z,16.80
2023-11-09T11:28:15.016Z,20.23
2023-11-09T11:30:47.751Z,23.92
2023-11-09T11:33:22.878Z,20.20
2023-11-09T11:35:59.947Z,4.95
2023-11-09T11:38:34.889Z,3.72
2023-11-09T11:41:23.771Z,3.67
2023-11-09T11:43:58.265Z,4.15
2023-11-09T11:46:28.598Z,3.05
2023-11-09T11:48:59.492Z,4.78
2023-11-09T11:51:31.673Z,5.00
2023-11-09T11:54:14.270Z,8.18
2023-11-09T11:56:44.872Z,6.05
2023-11-09T11:59:17.949Z,6.53
2023-11-09T12:01:56.510Z,5.80
2023-11-09T12:04:28.145Z,6.63
2023-11-09T12:07:00.386Z,4.30
2023-11-09T12:09:33.909Z,4.07
2023-11-09T12:12:04.278Z,6.72
2023-11-09T12:14:35.065Z,4.85
2023-11-09T12:17:05.989Z,5.03
2023-11-09T12:19:39.201Z,4.15
2023-11-09T12:22:10.650Z,3.10
2023-11-09T12:24:43.486Z,3.38
2023-11-09T12:27:15.291Z,2.90
2023-11-09T12:29:48.012Z,7.80
2023-11-09T12:32:20.998Z,3.70
2023-11-09T12:34:52.673Z,3.85
2023-11-09T12:37:31.053Z,4.13
2023-11-09T12:40:05.703Z,3.20
2023-11-09T12:42:37.141Z,5.18
2023-11-09T12:45:16.045Z,6.38
2023-11-09T12:47:46.906Z,4.15
2023-11-09T12:50:21.033Z,4.45
2023-11-09T12:52:55.918Z,5.72
2023-11-09T12:55:28.936Z,4.03
2023-11-09T12:57:59.586Z,5.60
2023-11-09T13:00:34.263Z,4.70
2023-11-09T13:03:04.913Z,5.18
2023-11-09T13:05:43.077Z,5.13
2023-11-09T13:08:14.075Z,7.80
2023-11-09T13:10:57.334Z,4.82
2023-11-09T13:13:32.200Z,5.85
2023-11-09T13:16:04.660Z,5.20
2023-11-09T13:18:34.976Z,6.13
2023-11-09T13:21:05.812Z,5.10
2023-11-09T13:23:40.718Z,4.60
2023-11-09T13:26:13.614Z,8.77
2023-11-09T13:28:46.828Z,5.55
2023-11-09T13:31:22.456Z,4.85
2023-11-09T13:33:54.627Z,5.00
2023-11-09T13:36:39.119Z,6.75
2023-11-09T13:39:36.738Z,6.88
2023-11-09T13:42:19.359Z,3.90
2023-11-09T13:44:49.949Z,8.27
2023-11-09T13:47:23.530Z,6.85
2023-11-09T13:49:58.868Z,8.93
2023-11-09T13:52:39.787Z,6.90
2023-11-09T13:55:31.361Z,5.00
2023-11-09T13:58:01.729Z,8.05
2023-11-09T14:00:38.080Z,5.70
2023-11-09T14:03:09.614Z,5.72
2023-11-09T14:05:39.936Z,9.75
2023-11-09T14:08:19.700Z,6.13
2023-11-09T14:10:50.414Z,6.47
2023-11-09T14:13:30.201Z,10.02
2023-11-09T14:16:15.091Z,6.93
2023-11-09T14:18:52.258Z,9.25
2023-11-09T14:21:25.536Z,9.75
2023-11-09T14:23:58.327Z,13.25
2023-11-09T14:26:31.083Z,5.85
2023-11-09T14:29:07.327Z,9.02
2023-11-09T14:31:41.067Z,6.65
2023-11-09T14:34:15.410Z,9.45
2023-11-09T14:36:48.725Z,7.38
2023-11-09T14:39:38.337Z,9.82
2023-11-09T14:42:10.998Z,5.63
2023-11-09T14:44:49.501Z,6.05
2023-11-09T14:47:26.034Z,7.20
2023-11-09T14:49:59.987Z,11.15
2023-11-09T14:52:42.628Z,7.50
2023-11-09T14:55:15.356Z,9.48
2023-11-09T14:57:46.559Z,8.30
2023-11-09T15:00:22.592Z,7.32
2023-11-09T15:02:52.969Z,6.63
2023-11-09T15:05:27.044Z,6.68
2023-11-09T15:07:59.733Z,8.80
2023-11-09T15:10:35.299Z,9.98
2023-11-09T15:13:05.673Z,12.70
2023-11-09T15:15:38.530Z,10.40
2023-11-09T15:18:11.208Z,7.72
2023-11-09T15:20:42.818Z,10.80
2023-11-09T15:23:15.164Z,10.02
2023-11-09T15:25:49.095Z,9.15
2023-11-09T15:28:21.276Z,9.82
2023-11-09T15:30:54.291Z,9.63
2023-11-09T15:33:24.574Z,15.80
2023-11-09T15:35:54.874Z,16.45
2023-11-09T15:38:25.521Z,13.07
2023-11-09T15:41:17.387Z,12.65
2023-11-09T15:43:46.973Z,11.80
2023-11-09T15:46:22.392Z,9.57
2023-11-09T15:48:54.936Z,10.93
2023-11-09T15:51:36.573Z,8.07
2023-11-09T15:54:09.176Z,12.80
2023-11-09T15:56:41.128Z,11.48
2023-11-09T15:59:13.260Z,7.25
2023-11-09T16:01:44.958Z,10.40
2023-11-09T16:04:15.562Z,24.48
2023-11-09T16:06:46.839Z,10.90
2023-11-09T16:09:19.178Z,12.15
2023-11-09T16:11:50.023Z,7.15
2023-11-09T16:14:20.286Z,11.32
2023-11-09T16:16:53.386Z,7.05
2023-11-09T16:19:25.793Z,6.35
2023-11-09T16:21:56.109Z,5.88
2023-11-09T16:24:29.484Z,10.52
2023-11-09T16:27:01.778Z,7.35
2023-11-09T16:29:32.036Z,7.35
2023-11-09T16:32:06.542Z,7.13
2023-11-09T16:34:38.377Z,11.98
2023-11-09T16:37:08.952Z,10.52
2023-11-09T16:39:39.319Z,8.63
2023-11-09T16:42:09.655Z,6.35
2023-11-09T16:44:39.976Z,7.50
2023-11-09T16:47:15.738Z,7.72
2023-11-09T16:49:46.046Z,8.15
2023-11-09T16:52:17.086Z,7.78
2023-11-09T16:54:47.448Z,8.80
2023-11-09T16:57:17.747Z,9.80
2023-11-09T16:59:51.274Z,8.65
2023-11-09T17:02:25.790Z,8.80
2023-11-09T17:04:56.305Z,11.18
2023-11-09T17:07:43.268Z,7.43
2023-11-09T17:10:19.078Z,9.98
2023-11-09T17:12:54.953Z,7.82
2023-11-09T17:15:25.245Z,8.73
2023-11-09T17:17:58.588Z,6.22
2023-11-09T17:20:28.870Z,8.13
2023-11-09T17:22:59.141Z,7.00
2023-11-09T17:25:30.196Z,7.93
2023-11-09T17:28:00.567Z,7.65
2023-11-09T17:30:30.996Z,9.95
2023-11-09T17:33:03.864Z,8.48
2023-11-09T17:35:34.197Z,9.35
2023-11-09T17:38:04.669Z,10.40
2023-11-09T17:40:35.054Z,10.00
2023-11-09T17:43:05.400Z,8.95
2023-11-09T17:45:35.677Z,10.70
2023-11-09T17:48:09.429Z,8.48
2023-11-09T17:50:41.465Z,7.43
2023-11-09T17:53:12.881Z,6.65
2023-11-09T17:55:43.198Z,9.93
2023-11-09T17:58:14.970Z,5.85
2023-11-09T18:00:45.686Z,7.32
2023-11-09T18:03:23.869Z,6.68
2023-11-09T18:05:54.167Z,6.97
2023-11-09T18:08:24.443Z,5.90
2023-11-09T18:10:54.759Z,5.78
2023-11-09T18:13:25.093Z,6.22
2023-11-09T18:15:55.462Z,6.95
2023-11-09T18:18:28.955Z,10.45
2023-11-09T18:21:01.304Z,6.63
2023-11-09T18:23:33.263Z,6.95
2023-11-09T18:26:03.544Z,6.70
2023-11-09T18:28:33.910Z,8.63
2023-11-09T18:31:04.200Z,5.85
2023-11-09T18:33:38.560Z,6.10
2023-11-09T18:36:09.506Z,8.88
2023-11-09T18:38:39.930Z,5.57
2023-11-09T18:41:13.326Z,5.30
2023-11-09T18:43:49.011Z,6.13
2023-11-09T18:46:20.382Z,8.80
2023-11-09T18:48:53.323Z,6.40
2023-11-09T18:51:23.653Z,4.65
2023-11-09T18:53:53.941Z,5.95
2023-11-09T18:56:24.915Z,5.55
2023-11-09T18:58:55.662Z,5.22
2023-11-09T19:01:26.071Z,12.63
2023-11-09T19:06:32.532Z,8.50
2023-11-09T19:09:02.814Z,4.35
2023-11-09T19:11:33.534Z,1.92
2023-11-09T19:14:03.823Z,3.63
2023-11-09T19:16:34.203Z,2.87
2023-11-09T19:19:07.377Z,1.83
2023-11-09T19:24:12.470Z,1.97
2023-11-09T19:26:44.160Z,1.40
2023-11-09T19:29:15.551Z,1.40
2023-11-09T19:31:46.105Z,1.23
2023-11-09T19:34:18.990Z,0.57
2023-11-09T19:44:33.095Z,0.50
2023-11-09T19:47:05.950Z,0.83
2023-11-09T19:49:39.094Z,0.67
2023-11-09T19:52:10.076Z,0.83
2023-11-09T19:54:40.432Z,1.30
2023-11-09T19:57:10.745Z,1.07
2023-11-09T19:59:40.982Z,0.93
2023-11-09T20:02:13.451Z,0.97
2023-11-09T20:04:46.666Z,1.40
2023-11-09T20:07:17.163Z,0.50
2023-11-09T20:09:47.511Z,0.87
2023-11-09T20:12:18.623Z,1.17
2023-11-09T20:14:48.920Z,0.80
2023-11-09T20:17:19.288Z,1.70
2023-11-09T20:19:52.191Z,0.70
2023-11-09T20:22:24.934Z,0.97
2023-11-09T20:24:55.176Z,1.23
2023-11-09T20:27:26.208Z,1.13
2023-11-09T20:29:57.221Z,1.33
2023-11-09T20:32:30.581Z,0.83
2023-11-09T20:35:03.502Z,1.07
2023-11-09T20:37:33.821Z,1.10
2023-11-09T20:40:04.361Z,2.27
2023-11-09T20:42:40.042Z,1.23
2023-11-09T20:45:13.324Z,2.00
2023-11-09T20:47:44.103Z,1.43
2023-11-09T20:50:18.318Z,1.50
2023-11-09T20:52:51.163Z,1.60
2023-11-09T20:55:23.177Z,2.27
2023-11-09T20:57:54.941Z,1.60
2023-11-09T21:00:26.500Z,1.13
2023-11-09T21:02:56.934Z,0.77
2023-11-09T21:05:30.144Z,1.77
2023-11-09T21:08:00.606Z,1.60
2023-11-09T21:10:32.332Z,1.40
2023-11-09T21:13:03.065Z,2.07
2023-11-09T21:15:33.462Z,0.80
2023-11-09T21:18:04.056Z,1.67
2023-11-09T21:20:36.975Z,1.80
2023-11-09T21:23:07.241Z,2.33
2023-11-09T21:25:37.494Z,3.57
2023-11-09T21:28:10.189Z,2.53
2023-11-09T21:30:42.412Z,2.03
2023-11-09T21:33:13.456Z,1.83
2023-11-09T21:35:47.020Z,1.70
2023-11-09T21:38:17.424Z,3.03
2023-11-09T21:40:47.705Z,2.63
2023-11-09T21:43:18.379Z,1.77
2023-11-09T21:45:49.008Z,5.13
2023-11-09T21:48:19.798Z,4.53
2023-11-09T21:50:52.748Z,3.20
2023-11-09T21:53:23.059Z,3.20
2023-11-09T21:55:53.332Z,2.77
2023-11-09T21:58:24.643Z,2.30
2023-11-09T22:00:55.439Z,3.20
2023-11-09T22:03:26.276Z,2.97
2023-11-09T22:05:59.287Z,1.60
2023-11-09T22:08:29.548Z,2.03
2023-11-09T22:11:01.017Z,4.10
2023-11-09T22:13:31.478Z,4.50
2023-11-09T22:16:01.768Z,4.67
2023-11-09T22:18:32.064Z,1.67
2023-11-09T22:21:04.948Z,4.07
2023-11-09T22:23:35.275Z,2.67
2023-11-09T22:26:05.576Z,2.60
2023-11-09T22:28:39.455Z,2.50
2023-11-09T22:31:10.315Z,1.93
2023-11-09T22:33:41.969Z,2.23
2023-11-09T22:36:14.981Z,2.10
2023-11-09T22:38:45.229Z,4.00
2023-11-09T22:41:15.681Z,3.60
2023-11-09T22:43:46.061Z,4.33
2023-11-09T22:46:16.796Z,4.27
2023-11-09T22:48:49.654Z,3.00
2023-11-09T22:51:23.854Z,3.10
2023-11-09T22:53:54.330Z,4.43
2023-11-09T22:56:24.568Z,1.30
2023-11-09T22:58:54.798Z,2.43
2023-11-09T23:01:31.799Z,2.20
2023-11-09T23:04:02.120Z,2.23
2023-11-09T23:06:35.066Z,3.27
2023-11-09T23:09:05.752Z,3.43
2023-11-09T23:11:36.015Z,4.93
2023-11-09T23:14:08.870Z,4.93
2023-11-09T23:16:39.098Z,5.93
2023-11-09T23:19:09.590Z,5.43
2023-11-09T23:21:43.209Z,3.87
2023-11-09T23:24:13.622Z,3.67
2023-11-09T23:26:43.992Z,3.60
2023-11-09T23:29:14.361Z,3.40
2023-11-09T23:31:44.630Z,6.47
2023-11-09T23:34:15.076Z,2.33
2023-11-09T23:36:47.977Z,4.10
2023-11-09T23:39:18.774Z,4.53
2023-11-09T23:41:49.112Z,3.03
2023-11-09T23:44:19.341Z,2.77
2023-11-09T23:46:49.714Z,1.90
2023-11-09T23:49:20.024Z,1.43
2023-11-09T23:51:55.718Z,1.97
2023-11-09T23:54:27.172Z,4.13
2023-11-09T23:56:57.541Z,3.87
2023-11-09T23:59:27.853Z,4.73
